sensor_id;sensor_type;location;lat;lon;timestamp;P1;durP1;ratioP1;P2;durP2;ratioP2
82230;SDS011;71832;45.138;9.816;2023-12-28T00:00:24;43.05;;;25.88;;
82230;SDS011;71832;45.138;9.816;2023-12-28T00:02:53;44.35;;;26.45;;
82230;SDS011;71832;45.138;9.816;2023-12-28T00:05:21;54.58;;;27.60;;
82230;SDS011;71832;45.138;9.816;2023-12-28T00:07:49;48.17;;;27.08;;
82230;SDS011;71832;45.138;9.816;2023-12-28T00:10:25;47.60;;;26.20;;
82230;SDS011;71832;45.138;9.816;2023-12-28T00:12:54;44.53;;;27.15;;
82230;SDS011;71832;45.138;9.816;2023-12-28T00:15:23;45.13;;;27.17;;
82230;SDS011;71832;45.138;9.816;2023-12-28T00:17:51;46.22;;;26.83;;
82230;SDS011;71832;45.138;9.816;2023-12-28T00:20:19;46.63;;;26.63;;
82230;SDS011;71832;45.138;9.816;2023-12-28T00:22:47;51.58;;;27.05;;
82230;SDS011;71832;45.138;9.816;2023-12-28T00:25:15;46.63;;;26.35;;
82230;SDS011;71832;45.138;9.816;2023-12-28T00:27:44;51.33;;;28.17;;
82230;SDS011;71832;45.138;9.816;2023-12-28T00:30:12;44.05;;;26.40;;
82230;SDS011;71832;45.138;9.816;2023-12-28T00:32:52;49.75;;;28.15;;
82230;SDS011;71832;45.138;9.816;2023-12-28T00:35:20;48.75;;;27.67;;
82230;SDS011;71832;45.138;9.816;2023-12-28T00:37:49;47.28;;;27.55;;
82230;SDS011;71832;45.138;9.816;2023-12-28T00:40:18;50.28;;;28.38;;
82230;SDS011;71832;45.138;9.816;2023-12-28T00:42:48;49.63;;;29.35;;
82230;SDS011;71832;45.138;9.816;2023-12-28T00:45:16;45.17;;;27.23;;
82230;SDS011;71832;45.138;9.816;2023-12-28T00:47:45;50.63;;;28.60;;
82230;SDS011;71832;45.138;9.816;2023-12-28T00:50:14;46.95;;;27.83;;
82230;SDS011;71832;45.138;9.816;2023-12-28T00:52:42;51.47;;;28.95;;
82230;SDS011;71832;45.138;9.816;2023-12-28T00:55:10;44.58;;;28.65;;
82230;SDS011;71832;45.138;9.816;2023-12-28T00:57:39;47.65;;;28.08;;
82230;SDS011;71832;45.138;9.816;2023-12-28T01:00:07;47.95;;;28.45;;
82230;SDS011;71832;45.138;9.816;2023-12-28T01:02:36;50.15;;;29.33;;
82230;SDS011;71832;45.138;9.816;2023-12-28T01:05:05;45.72;;;28.02;;
82230;SDS011;71832;45.138;9.816;2023-12-28T01:07:32;53.72;;;28.83;;
82230;SDS011;71832;45.138;9.816;2023-12-28T01:10:01;51.40;;;28.60;;
82230;SDS011;71832;45.138;9.816;2023-12-28T01:12:29;51.70;;;29.45;;
82230;SDS011;71832;45.138;9.816;2023-12-28T01:14:58;46.42;;;28.52;;
82230;SDS011;71832;45.138;9.816;2023-12-28T01:17:26;53.05;;;29.13;;
82230;SDS011;71832;45.138;9.816;2023-12-28T01:19:55;50.30;;;29.27;;
82230;SDS011;71832;45.138;9.816;2023-12-28T01:22:24;48.67;;;29.48;;
82230;SDS011;71832;45.138;9.816;2023-12-28T01:24:52;50.33;;;28.70;;
82230;SDS011;71832;45.138;9.816;2023-12-28T01:27:21;55.33;;;28.58;;
82230;SDS011;71832;45.138;9.816;2023-12-28T01:29:50;52.90;;;30.42;;
82230;SDS011;71832;45.138;9.816;2023-12-28T01:32:18;54.63;;;30.23;;
82230;SDS011;71832;45.138;9.816;2023-12-28T01:34:47;49.08;;;28.40;;
82230;SDS011;71832;45.138;9.816;2023-12-28T01:37:16;47.05;;;28.50;;
82230;SDS011;71832;45.138;9.816;2023-12-28T01:39:44;52.92;;;29.88;;
82230;SDS011;71832;45.138;9.816;2023-12-28T01:42:12;53.65;;;29.63;;
82230;SDS011;71832;45.138;9.816;2023-12-28T01:44:41;51.22;;;29.33;;
82230;SDS011;71832;45.138;9.816;2023-12-28T01:47:09;48.13;;;27.85;;
82230;SDS011;71832;45.138;9.816;2023-12-28T01:49:38;45.10;;;27.85;;
82230;SDS011;71832;45.138;9.816;2023-12-28T01:52:07;49.72;;;28.52;;
82230;SDS011;71832;45.138;9.816;2023-12-28T01:54:35;48.72;;;29.05;;
82230;SDS011;71832;45.138;9.816;2023-12-28T01:57:05;56.35;;;29.05;;
82230;SDS011;71832;45.138;9.816;2023-12-28T01:59:33;48.00;;;29.48;;
82230;SDS011;71832;45.138;9.816;2023-12-28T02:02:02;50.75;;;28.98;;
82230;SDS011;71832;45.138;9.816;2023-12-28T02:04:30;46.30;;;28.13;;
82230;SDS011;71832;45.138;9.816;2023-12-28T02:07:00;49.67;;;30.00;;
82230;SDS011;71832;45.138;9.816;2023-12-28T02:09:28;48.60;;;29.23;;
82230;SDS011;71832;45.138;9.816;2023-12-28T02:11:56;45.50;;;27.38;;
82230;SDS011;71832;45.138;9.816;2023-12-28T02:14:24;45.97;;;27.63;;
82230;SDS011;71832;45.138;9.816;2023-12-28T02:17:00;42.78;;;25.38;;
82230;SDS011;71832;45.138;9.816;2023-12-28T02:19:39;42.33;;;26.52;;
82230;SDS011;71832;45.138;9.816;2023-12-28T02:22:08;44.05;;;28.35;;
82230;SDS011;71832;45.138;9.816;2023-12-28T02:25:21;43.08;;;27.70;;
82230;SDS011;71832;45.138;9.816;2023-12-28T02:27:42;46.53;;;26.73;;
82230;SDS011;71832;45.138;9.816;2023-12-28T02:30:13;45.22;;;26.83;;
82230;SDS011;71832;45.138;9.816;2023-12-28T02:33:29;44.97;;;27.55;;
82230;SDS011;71832;45.138;9.816;2023-12-28T02:35:34;41.30;;;26.23;;
82230;SDS011;71832;45.138;9.816;2023-12-28T02:38:17;48.50;;;26.48;;
82230;SDS011;71832;45.138;9.816;2023-12-28T02:40:46;47.58;;;29.15;;
82230;SDS011;71832;45.138;9.816;2023-12-28T02:43:15;51.08;;;27.85;;
82230;SDS011;71832;45.138;9.816;2023-12-28T02:45:44;47.03;;;28.40;;
82230;SDS011;71832;45.138;9.816;2023-12-28T02:48:13;47.40;;;28.13;;
82230;SDS011;71832;45.138;9.816;2023-12-28T02:50:42;44.90;;;26.63;;
82230;SDS011;71832;45.138;9.816;2023-12-28T02:53:11;51.45;;;27.65;;
82230;SDS011;71832;45.138;9.816;2023-12-28T02:55:40;44.20;;;25.70;;
82230;SDS011;71832;45.138;9.816;2023-12-28T02:58:07;47.60;;;27.58;;
82230;SDS011;71832;45.138;9.816;2023-12-28T03:00:35;47.38;;;27.25;;
82230;SDS011;71832;45.138;9.816;2023-12-28T03:03:04;44.55;;;26.67;;
82230;SDS011;71832;45.138;9.816;2023-12-28T03:05:33;48.13;;;28.58;;
82230;SDS011;71832;45.138;9.816;2023-12-28T03:08:01;50.08;;;28.90;;
82230;SDS011;71832;45.138;9.816;2023-12-28T03:10:29;45.65;;;26.42;;
82230;SDS011;71832;45.138;9.816;2023-12-28T03:12:58;42.70;;;26.40;;
82230;SDS011;71832;45.138;9.816;2023-12-28T03:15:26;46.08;;;27.17;;
82230;SDS011;71832;45.138;9.816;2023-12-28T03:17:54;45.47;;;26.92;;
82230;SDS011;71832;45.138;9.816;2023-12-28T03:20:21;43.88;;;25.90;;
82230;SDS011;71832;45.138;9.816;2023-12-28T03:22:49;49.35;;;27.77;;
82230;SDS011;71832;45.138;9.816;2023-12-28T03:25:18;47.20;;;29.27;;
82230;SDS011;71832;45.138;9.816;2023-12-28T03:27:47;44.83;;;26.77;;
82230;SDS011;71832;45.138;9.816;2023-12-28T03:30:16;47.95;;;28.33;;
82230;SDS011;71832;45.138;9.816;2023-12-28T03:32:44;46.38;;;28.33;;
82230;SDS011;71832;45.138;9.816;2023-12-28T03:35:13;45.20;;;26.55;;
82230;SDS011;71832;45.138;9.816;2023-12-28T03:37:41;50.08;;;29.00;;
82230;SDS011;71832;45.138;9.816;2023-12-28T03:40:09;48.17;;;29.63;;
82230;SDS011;71832;45.138;9.816;2023-12-28T03:42:38;45.95;;;27.50;;
82230;SDS011;71832;45.138;9.816;2023-12-28T03:45:07;51.58;;;28.70;;
82230;SDS011;71832;45.138;9.816;2023-12-28T03:47:36;49.08;;;28.23;;
82230;SDS011;71832;45.138;9.816;2023-12-28T03:50:05;52.35;;;29.33;;
82230;SDS011;71832;45.138;9.816;2023-12-28T03:52:34;50.33;;;30.25;;
82230;SDS011;71832;45.138;9.816;2023-12-28T03:55:03;46.40;;;28.25;;
82230;SDS011;71832;45.138;9.816;2023-12-28T03:57:32;47.38;;;28.15;;
82230;SDS011;71832;45.138;9.816;2023-12-28T04:00:00;46.95;;;26.75;;
82230;SDS011;71832;45.138;9.816;2023-12-28T04:02:28;45.35;;;28.55;;
82230;SDS011;71832;45.138;9.816;2023-12-28T04:04:57;48.97;;;28.65;;
82230;SDS011;71832;45.138;9.816;2023-12-28T04:07:26;49.78;;;28.77;;
82230;SDS011;71832;45.138;9.816;2023-12-28T04:09:54;53.30;;;28.80;;
82230;SDS011;71832;45.138;9.816;2023-12-28T04:12:24;48.80;;;28.40;;
82230;SDS011;71832;45.138;9.816;2023-12-28T04:14:54;43.35;;;27.13;;
82230;SDS011;71832;45.138;9.816;2023-12-28T04:17:22;48.67;;;27.45;;
82230;SDS011;71832;45.138;9.816;2023-12-28T04:19:50;48.20;;;28.63;;
82230;SDS011;71832;45.138;9.816;2023-12-28T04:22:18;46.65;;;26.77;;
82230;SDS011;71832;45.138;9.816;2023-12-28T04:24:46;49.03;;;27.95;;
82230;SDS011;71832;45.138;9.816;2023-12-28T04:27:15;46.05;;;26.65;;
82230;SDS011;71832;45.138;9.816;2023-12-28T04:29:43;47.60;;;27.35;;
82230;SDS011;71832;45.138;9.816;2023-12-28T04:32:12;48.05;;;28.67;;
82230;SDS011;71832;45.138;9.816;2023-12-28T04:34:40;46.38;;;26.80;;
82230;SDS011;71832;45.138;9.816;2023-12-28T04:37:08;48.55;;;28.23;;
82230;SDS011;71832;45.138;9.816;2023-12-28T04:39:37;46.53;;;28.20;;
82230;SDS011;71832;45.138;9.816;2023-12-28T04:42:06;50.08;;;27.80;;
82230;SDS011;71832;45.138;9.816;2023-12-28T04:44:37;47.25;;;27.77;;
82230;SDS011;71832;45.138;9.816;2023-12-28T04:47:06;46.22;;;28.65;;
82230;SDS011;71832;45.138;9.816;2023-12-28T04:49:34;48.75;;;28.88;;
82230;SDS011;71832;45.138;9.816;2023-12-28T04:52:03;45.88;;;26.73;;
82230;SDS011;71832;45.138;9.816;2023-12-28T04:54:32;49.80;;;28.45;;
82230;SDS011;71832;45.138;9.816;2023-12-28T04:57:01;48.95;;;27.65;;
82230;SDS011;71832;45.138;9.816;2023-12-28T04:59:30;49.97;;;28.25;;
82230;SDS011;71832;45.138;9.816;2023-12-28T05:01:58;50.05;;;26.67;;
82230;SDS011;71832;45.138;9.816;2023-12-28T05:04:26;49.63;;;27.92;;
82230;SDS011;71832;45.138;9.816;2023-12-28T05:06:54;51.20;;;30.00;;
82230;SDS011;71832;45.138;9.816;2023-12-28T05:09:22;50.88;;;28.23;;
82230;SDS011;71832;45.138;9.816;2023-12-28T05:11:50;48.83;;;29.38;;
82230;SDS011;71832;45.138;9.816;2023-12-28T05:14:18;52.47;;;30.25;;
82230;SDS011;71832;45.138;9.816;2023-12-28T05:16:47;51.08;;;30.13;;
82230;SDS011;71832;45.138;9.816;2023-12-28T05:19:16;53.78;;;29.02;;
82230;SDS011;71832;45.138;9.816;2023-12-28T05:21:44;56.10;;;30.83;;
82230;SDS011;71832;45.138;9.816;2023-12-28T05:24:13;55.75;;;30.52;;
82230;SDS011;71832;45.138;9.816;2023-12-28T05:26:41;55.28;;;31.35;;
82230;SDS011;71832;45.138;9.816;2023-12-28T05:29:10;54.67;;;30.30;;
82230;SDS011;71832;45.138;9.816;2023-12-28T05:31:39;55.50;;;30.33;;
82230;SDS011;71832;45.138;9.816;2023-12-28T05:34:07;50.95;;;29.33;;
82230;SDS011;71832;45.138;9.816;2023-12-28T05:36:36;58.92;;;31.48;;
82230;SDS011;71832;45.138;9.816;2023-12-28T05:39:04;57.15;;;31.48;;
82230;SDS011;71832;45.138;9.816;2023-12-28T05:41:32;56.22;;;30.60;;
82230;SDS011;71832;45.138;9.816;2023-12-28T05:44:00;57.00;;;30.75;;
82230;SDS011;71832;45.138;9.816;2023-12-28T05:46:29;52.45;;;29.77;;
82230;SDS011;71832;45.138;9.816;2023-12-28T05:48:57;48.47;;;29.55;;
82230;SDS011;71832;45.138;9.816;2023-12-28T05:51:26;50.58;;;30.02;;
82230;SDS011;71832;45.138;9.816;2023-12-28T05:53:54;59.22;;;31.90;;
82230;SDS011;71832;45.138;9.816;2023-12-28T05:56:22;55.13;;;30.45;;
82230;SDS011;71832;45.138;9.816;2023-12-28T05:58:50;48.67;;;28.38;;
82230;SDS011;71832;45.138;9.816;2023-12-28T06:01:19;55.75;;;32.13;;
82230;SDS011;71832;45.138;9.816;2023-12-28T06:03:48;58.50;;;31.33;;
82230;SDS011;71832;45.138;9.816;2023-12-28T06:06:18;52.45;;;31.10;;
82230;SDS011;71832;45.138;9.816;2023-12-28T06:08:46;52.45;;;30.90;;
82230;SDS011;71832;45.138;9.816;2023-12-28T06:11:15;53.90;;;31.13;;
82230;SDS011;71832;45.138;9.816;2023-12-28T06:13:43;54.83;;;32.58;;
82230;SDS011;71832;45.138;9.816;2023-12-28T06:16:11;57.00;;;32.95;;
82230;SDS011;71832;45.138;9.816;2023-12-28T06:18:39;61.28;;;32.50;;
82230;SDS011;71832;45.138;9.816;2023-12-28T06:21:08;54.60;;;30.60;;
82230;SDS011;71832;45.138;9.816;2023-12-28T06:23:37;56.25;;;31.30;;
82230;SDS011;71832;45.138;9.816;2023-12-28T06:26:05;48.85;;;28.83;;
82230;SDS011;71832;45.138;9.816;2023-12-28T06:28:34;54.35;;;29.92;;
82230;SDS011;71832;45.138;9.816;2023-12-28T06:31:03;52.45;;;29.27;;
82230;SDS011;71832;45.138;9.816;2023-12-28T06:33:31;47.92;;;28.25;;
82230;SDS011;71832;45.138;9.816;2023-12-28T06:36:04;55.00;;;31.05;;
82230;SDS011;71832;45.138;9.816;2023-12-28T06:38:33;49.63;;;30.38;;
82230;SDS011;71832;45.138;9.816;2023-12-28T06:41:01;53.25;;;29.08;;
82230;SDS011;71832;45.138;9.816;2023-12-28T06:43:36;53.55;;;29.13;;
82230;SDS011;71832;45.138;9.816;2023-12-28T06:46:05;49.22;;;28.88;;
82230;SDS011;71832;45.138;9.816;2023-12-28T06:48:33;57.60;;;30.38;;
82230;SDS011;71832;45.138;9.816;2023-12-28T06:51:00;51.13;;;29.48;;
82230;SDS011;71832;45.138;9.816;2023-12-28T06:53:28;50.80;;;29.52;;
82230;SDS011;71832;45.138;9.816;2023-12-28T06:55:56;53.15;;;28.80;;
82230;SDS011;71832;45.138;9.816;2023-12-28T06:58:24;49.47;;;29.33;;
82230;SDS011;71832;45.138;9.816;2023-12-28T07:00:52;52.08;;;31.40;;
82230;SDS011;71832;45.138;9.816;2023-12-28T07:03:22;51.95;;;30.40;;
82230;SDS011;71832;45.138;9.816;2023-12-28T07:05:51;54.25;;;29.38;;
82230;SDS011;71832;45.138;9.816;2023-12-28T07:08:18;55.55;;;29.20;;
82230;SDS011;71832;45.138;9.816;2023-12-28T07:10:46;53.10;;;29.73;;
82230;SDS011;71832;45.138;9.816;2023-12-28T07:13:13;54.35;;;28.75;;
82230;SDS011;71832;45.138;9.816;2023-12-28T07:15:40;52.33;;;31.20;;
82230;SDS011;71832;45.138;9.816;2023-12-28T07:18:08;51.50;;;31.02;;
82230;SDS011;71832;45.138;9.816;2023-12-28T07:20:37;57.17;;;32.15;;
82230;SDS011;71832;45.138;9.816;2023-12-28T07:23:04;59.75;;;31.35;;
82230;SDS011;71832;45.138;9.816;2023-12-28T07:25:32;56.75;;;31.52;;
82230;SDS011;71832;45.138;9.816;2023-12-28T07:28:00;53.13;;;30.63;;
82230;SDS011;71832;45.138;9.816;2023-12-28T07:30:27;52.70;;;31.63;;
82230;SDS011;71832;45.138;9.816;2023-12-28T07:32:55;55.85;;;31.70;;
82230;SDS011;71832;45.138;9.816;2023-12-28T07:35:23;55.33;;;30.00;;
82230;SDS011;71832;45.138;9.816;2023-12-28T07:37:52;54.70;;;29.58;;
82230;SDS011;71832;45.138;9.816;2023-12-28T07:40:20;52.90;;;30.48;;
82230;SDS011;71832;45.138;9.816;2023-12-28T07:42:48;56.58;;;33.38;;
82230;SDS011;71832;45.138;9.816;2023-12-28T07:45:16;62.75;;;32.20;;
82230;SDS011;71832;45.138;9.816;2023-12-28T07:47:49;60.72;;;31.23;;
82230;SDS011;71832;45.138;9.816;2023-12-28T07:50:17;58.97;;;32.05;;
82230;SDS011;71832;45.138;9.816;2023-12-28T07:52:46;54.55;;;31.88;;
82230;SDS011;71832;45.138;9.816;2023-12-28T07:55:16;56.80;;;31.02;;
82230;SDS011;71832;45.138;9.816;2023-12-28T07:57:44;56.72;;;32.45;;
82230;SDS011;71832;45.138;9.816;2023-12-28T08:00:12;59.65;;;32.28;;
82230;SDS011;71832;45.138;9.816;2023-12-28T08:02:40;56.78;;;30.98;;
82230;SDS011;71832;45.138;9.816;2023-12-28T08:05:09;62.00;;;33.42;;
82230;SDS011;71832;45.138;9.816;2023-12-28T08:07:38;60.28;;;31.88;;
82230;SDS011;71832;45.138;9.816;2023-12-28T08:10:07;59.90;;;31.98;;
82230;SDS011;71832;45.138;9.816;2023-12-28T08:12:35;62.60;;;32.80;;
82230;SDS011;71832;45.138;9.816;2023-12-28T08:15:05;73.70;;;36.72;;
82230;SDS011;71832;45.138;9.816;2023-12-28T08:17:34;84.25;;;38.97;;
82230;SDS011;71832;45.138;9.816;2023-12-28T08:20:04;99.57;;;46.05;;
82230;SDS011;71832;45.138;9.816;2023-12-28T08:22:33;88.55;;;41.00;;
82230;SDS011;71832;45.138;9.816;2023-12-28T08:25:02;80.30;;;39.25;;
82230;SDS011;71832;45.138;9.816;2023-12-28T08:27:31;79.97;;;41.28;;
82230;SDS011;71832;45.138;9.816;2023-12-28T08:29:59;79.00;;;39.40;;
82230;SDS011;71832;45.138;9.816;2023-12-28T08:32:28;74.75;;;38.40;;
82230;SDS011;71832;45.138;9.816;2023-12-28T08:34:57;72.90;;;36.20;;
82230;SDS011;71832;45.138;9.816;2023-12-28T08:37:25;71.15;;;36.88;;
82230;SDS011;71832;45.138;9.816;2023-12-28T08:39:54;64.05;;;33.80;;
82230;SDS011;71832;45.138;9.816;2023-12-28T08:42:22;67.07;;;33.90;;
82230;SDS011;71832;45.138;9.816;2023-12-28T08:44:50;66.45;;;34.97;;
82230;SDS011;71832;45.138;9.816;2023-12-28T08:47:19;68.45;;;35.17;;
82230;SDS011;71832;45.138;9.816;2023-12-28T08:49:48;67.95;;;36.17;;
82230;SDS011;71832;45.138;9.816;2023-12-28T08:52:17;65.60;;;35.17;;
82230;SDS011;71832;45.138;9.816;2023-12-28T08:54:45;62.63;;;33.58;;
82230;SDS011;71832;45.138;9.816;2023-12-28T08:57:14;68.53;;;34.65;;
82230;SDS011;71832;45.138;9.816;2023-12-28T08:59:43;69.70;;;36.13;;
82230;SDS011;71832;45.138;9.816;2023-12-28T09:02:12;71.90;;;37.25;;
82230;SDS011;71832;45.138;9.816;2023-12-28T09:04:40;65.28;;;36.10;;
82230;SDS011;71832;45.138;9.816;2023-12-28T09:07:09;73.78;;;37.20;;
82230;SDS011;71832;45.138;9.816;2023-12-28T09:09:37;66.00;;;36.72;;
82230;SDS011;71832;45.138;9.816;2023-12-28T09:12:05;63.55;;;35.22;;
82230;SDS011;71832;45.138;9.816;2023-12-28T09:14:33;66.25;;;36.03;;
82230;SDS011;71832;45.138;9.816;2023-12-28T09:17:01;67.50;;;35.60;;
82230;SDS011;71832;45.138;9.816;2023-12-28T09:19:28;60.17;;;33.75;;
82230;SDS011;71832;45.138;9.816;2023-12-28T09:21:56;64.43;;;34.08;;
82230;SDS011;71832;45.138;9.816;2023-12-28T09:24:25;61.05;;;33.88;;
82230;SDS011;71832;45.138;9.816;2023-12-28T09:26:53;66.07;;;34.63;;
82230;SDS011;71832;45.138;9.816;2023-12-28T09:29:22;65.15;;;33.58;;
82230;SDS011;71832;45.138;9.816;2023-12-28T09:31:49;69.60;;;35.25;;
82230;SDS011;71832;45.138;9.816;2023-12-28T09:34:17;64.75;;;34.17;;
82230;SDS011;71832;45.138;9.816;2023-12-28T09:36:46;70.10;;;34.58;;
82230;SDS011;71832;45.138;9.816;2023-12-28T09:39:14;65.57;;;36.40;;
82230;SDS011;71832;45.138;9.816;2023-12-28T09:41:43;64.63;;;36.45;;
82230;SDS011;71832;45.138;9.816;2023-12-28T09:44:14;62.90;;;34.63;;
82230;SDS011;71832;45.138;9.816;2023-12-28T09:46:44;68.85;;;36.92;;
82230;SDS011;71832;45.138;9.816;2023-12-28T09:49:12;66.88;;;35.05;;
82230;SDS011;71832;45.138;9.816;2023-12-28T09:51:41;64.78;;;35.75;;
82230;SDS011;71832;45.138;9.816;2023-12-28T09:54:08;66.18;;;36.00;;
82230;SDS011;71832;45.138;9.816;2023-12-28T09:56:37;68.57;;;34.95;;
82230;SDS011;71832;45.138;9.816;2023-12-28T09:59:07;66.13;;;36.42;;
82230;SDS011;71832;45.138;9.816;2023-12-28T10:01:35;67.50;;;36.78;;
82230;SDS011;71832;45.138;9.816;2023-12-28T10:04:03;63.65;;;36.47;;
82230;SDS011;71832;45.138;9.816;2023-12-28T10:06:34;63.53;;;36.47;;
82230;SDS011;71832;45.138;9.816;2023-12-28T10:09:02;63.67;;;35.10;;
82230;SDS011;71832;45.138;9.816;2023-12-28T10:11:30;64.00;;;35.05;;
82230;SDS011;71832;45.138;9.816;2023-12-28T10:13:58;63.63;;;35.90;;
82230;SDS011;71832;45.138;9.816;2023-12-28T10:16:27;63.08;;;35.55;;
82230;SDS011;71832;45.138;9.816;2023-12-28T10:18:56;67.40;;;35.08;;
82230;SDS011;71832;45.138;9.816;2023-12-28T10:21:24;66.07;;;35.78;;
82230;SDS011;71832;45.138;9.816;2023-12-28T10:23:52;69.20;;;37.30;;
82230;SDS011;71832;45.138;9.816;2023-12-28T10:26:20;72.07;;;36.88;;
82230;SDS011;71832;45.138;9.816;2023-12-28T10:28:49;68.88;;;36.78;;
82230;SDS011;71832;45.138;9.816;2023-12-28T10:31:23;71.15;;;36.72;;
82230;SDS011;71832;45.138;9.816;2023-12-28T10:33:52;62.63;;;33.65;;
82230;SDS011;71832;45.138;9.816;2023-12-28T10:36:20;69.18;;;37.83;;
82230;SDS011;71832;45.138;9.816;2023-12-28T10:38:50;64.68;;;33.30;;
82230;SDS011;71832;45.138;9.816;2023-12-28T10:41:20;67.97;;;36.08;;
82230;SDS011;71832;45.138;9.816;2023-12-28T10:46:30;76.30;;;37.92;;
82230;SDS011;71832;45.138;9.816;2023-12-28T10:48:59;80.30;;;39.05;;
82230;SDS011;71832;45.138;9.816;2023-12-28T10:51:32;85.15;;;40.38;;
82230;SDS011;71832;45.138;9.816;2023-12-28T10:54:06;96.15;;;42.28;;
82230;SDS011;71832;45.138;9.816;2023-12-28T11:00:20;85.30;;;39.55;;
82230;SDS011;71832;45.138;9.816;2023-12-28T11:02:48;76.72;;;37.45;;
82230;SDS011;71832;45.138;9.816;2023-12-28T11:05:20;84.28;;;38.97;;
82230;SDS011;71832;45.138;9.816;2023-12-28T11:07:50;75.15;;;36.88;;
82230;SDS011;71832;45.138;9.816;2023-12-28T11:10:19;83.05;;;38.30;;
82230;SDS011;71832;45.138;9.816;2023-12-28T11:12:51;81.88;;;39.30;;
82230;SDS011;71832;45.138;9.816;2023-12-28T11:15:19;84.97;;;38.20;;
82230;SDS011;71832;45.138;9.816;2023-12-28T11:17:49;82.60;;;39.20;;
82230;SDS011;71832;45.138;9.816;2023-12-28T11:20:17;85.45;;;38.38;;
82230;SDS011;71832;45.138;9.816;2023-12-28T11:22:45;76.40;;;38.58;;
82230;SDS011;71832;45.138;9.816;2023-12-28T11:25:14;88.20;;;39.30;;
82230;SDS011;71832;45.138;9.816;2023-12-28T11:27:44;89.18;;;39.70;;
82230;SDS011;71832;45.138;9.816;2023-12-28T11:30:12;88.63;;;39.38;;
82230;SDS011;71832;45.138;9.816;2023-12-28T11:32:40;91.30;;;39.28;;
82230;SDS011;71832;45.138;9.816;2023-12-28T11:35:12;88.07;;;39.85;;
82230;SDS011;71832;45.138;9.816;2023-12-28T11:37:40;86.05;;;38.72;;
82230;SDS011;71832;45.138;9.816;2023-12-28T11:40:12;89.82;;;37.03;;
82230;SDS011;71832;45.138;9.816;2023-12-28T11:42:52;85.88;;;38.60;;
82230;SDS011;71832;45.138;9.816;2023-12-28T11:45:21;84.13;;;37.95;;
82230;SDS011;71832;45.138;9.816;2023-12-28T11:48:00;79.03;;;38.10;;
82230;SDS011;71832;45.138;9.816;2023-12-28T11:52:56;84.95;;;37.50;;
82230;SDS011;71832;45.138;9.816;2023-12-28T11:55:24;83.75;;;37.03;;
82230;SDS011;71832;45.138;9.816;2023-12-28T11:57:53;76.28;;;34.22;;
82230;SDS011;71832;45.138;9.816;2023-12-28T12:00:22;63.88;;;32.30;;
82230;SDS011;71832;45.138;9.816;2023-12-28T12:02:51;59.97;;;30.45;;
82230;SDS011;71832;45.138;9.816;2023-12-28T12:05:21;60.42;;;29.58;;
82230;SDS011;71832;45.138;9.816;2023-12-28T12:07:49;62.22;;;29.00;;
82230;SDS011;71832;45.138;9.816;2023-12-28T12:10:18;85.45;;;34.17;;
82230;SDS011;71832;45.138;9.816;2023-12-28T12:12:47;58.72;;;29.83;;
82230;SDS011;71832;45.138;9.816;2023-12-28T12:15:18;95.85;;;31.55;;
82230;SDS011;71832;45.138;9.816;2023-12-28T12:17:46;64.07;;;30.17;;
82230;SDS011;71832;45.138;9.816;2023-12-28T12:20:14;59.17;;;30.30;;
82230;SDS011;71832;45.138;9.816;2023-12-28T12:22:43;58.50;;;30.83;;
82230;SDS011;71832;45.138;9.816;2023-12-28T12:25:11;59.58;;;28.60;;
82230;SDS011;71832;45.138;9.816;2023-12-28T12:27:41;61.03;;;31.15;;
82230;SDS011;71832;45.138;9.816;2023-12-28T12:30:09;58.75;;;30.77;;
82230;SDS011;71832;45.138;9.816;2023-12-28T12:32:37;59.78;;;30.48;;
82230;SDS011;71832;45.138;9.816;2023-12-28T12:35:09;66.80;;;32.92;;
82230;SDS011;71832;45.138;9.816;2023-12-28T12:37:40;59.22;;;30.60;;
82230;SDS011;71832;45.138;9.816;2023-12-28T12:40:08;64.00;;;31.15;;
82230;SDS011;71832;45.138;9.816;2023-12-28T12:42:36;59.15;;;30.90;;
82230;SDS011;71832;45.138;9.816;2023-12-28T12:45:04;47.17;;;26.67;;
82230;SDS011;71832;45.138;9.816;2023-12-28T12:47:33;50.35;;;27.42;;
82230;SDS011;71832;45.138;9.816;2023-12-28T12:50:01;54.88;;;28.80;;
82230;SDS011;71832;45.138;9.816;2023-12-28T12:52:30;50.28;;;26.40;;
82230;SDS011;71832;45.138;9.816;2023-12-28T12:54:58;50.53;;;27.95;;
82230;SDS011;71832;45.138;9.816;2023-12-28T12:57:27;50.90;;;26.58;;
82230;SDS011;71832;45.138;9.816;2023-12-28T12:59:56;53.90;;;26.65;;
82230;SDS011;71832;45.138;9.816;2023-12-28T13:02:27;50.10;;;27.00;;
82230;SDS011;71832;45.138;9.816;2023-12-28T13:04:55;50.05;;;26.33;;
82230;SDS011;71832;45.138;9.816;2023-12-28T13:07:24;45.78;;;25.17;;
82230;SDS011;71832;45.138;9.816;2023-12-28T13:09:52;43.63;;;24.42;;
82230;SDS011;71832;45.138;9.816;2023-12-28T13:12:21;45.53;;;25.60;;
82230;SDS011;71832;45.138;9.816;2023-12-28T13:14:50;46.83;;;26.27;;
82230;SDS011;71832;45.138;9.816;2023-12-28T13:17:19;51.33;;;27.50;;
82230;SDS011;71832;45.138;9.816;2023-12-28T13:19:48;47.83;;;26.65;;
82230;SDS011;71832;45.138;9.816;2023-12-28T13:22:17;49.08;;;27.20;;
82230;SDS011;71832;45.138;9.816;2023-12-28T13:24:45;46.25;;;26.08;;
82230;SDS011;71832;45.138;9.816;2023-12-28T13:27:13;49.67;;;26.20;;
82230;SDS011;71832;45.138;9.816;2023-12-28T13:29:42;46.33;;;25.77;;
82230;SDS011;71832;45.138;9.816;2023-12-28T13:32:11;47.03;;;26.02;;
82230;SDS011;71832;45.138;9.816;2023-12-28T13:34:39;39.10;;;24.52;;
82230;SDS011;71832;45.138;9.816;2023-12-28T13:37:08;43.40;;;25.00;;
82230;SDS011;71832;45.138;9.816;2023-12-28T13:39:37;46.30;;;25.10;;
82230;SDS011;71832;45.138;9.816;2023-12-28T13:42:06;48.85;;;26.08;;
82230;SDS011;71832;45.138;9.816;2023-12-28T13:44:34;49.80;;;27.80;;
82230;SDS011;71832;45.138;9.816;2023-12-28T13:47:02;51.13;;;26.83;;
82230;SDS011;71832;45.138;9.816;2023-12-28T13:49:31;50.28;;;26.67;;
82230;SDS011;71832;45.138;9.816;2023-12-28T13:51:59;43.58;;;25.75;;
82230;SDS011;71832;45.138;9.816;2023-12-28T13:54:27;49.35;;;25.52;;
82230;SDS011;71832;45.138;9.816;2023-12-28T13:56:57;42.45;;;25.63;;
82230;SDS011;71832;45.138;9.816;2023-12-28T13:59:26;47.47;;;26.48;;
82230;SDS011;71832;45.138;9.816;2023-12-28T14:01:54;45.17;;;25.70;;
82230;SDS011;71832;45.138;9.816;2023-12-28T14:04:24;47.97;;;27.35;;
82230;SDS011;71832;45.138;9.816;2023-12-28T14:06:52;47.47;;;27.08;;
82230;SDS011;71832;45.138;9.816;2023-12-28T14:09:19;50.25;;;28.17;;
82230;SDS011;71832;45.138;9.816;2023-12-28T14:11:48;51.67;;;30.13;;
82230;SDS011;71832;45.138;9.816;2023-12-28T14:14:16;51.80;;;28.98;;
82230;SDS011;71832;45.138;9.816;2023-12-28T14:16:46;49.97;;;28.00;;
82230;SDS011;71832;45.138;9.816;2023-12-28T14:19:14;53.63;;;28.73;;
82230;SDS011;71832;45.138;9.816;2023-12-28T14:21:41;47.10;;;27.13;;
82230;SDS011;71832;45.138;9.816;2023-12-28T14:24:10;50.08;;;27.55;;
82230;SDS011;71832;45.138;9.816;2023-12-28T14:26:40;45.65;;;26.33;;
82230;SDS011;71832;45.138;9.816;2023-12-28T14:29:09;45.20;;;24.88;;
82230;SDS011;71832;45.138;9.816;2023-12-28T14:31:36;44.38;;;24.55;;
82230;SDS011;71832;45.138;9.816;2023-12-28T14:34:04;39.05;;;23.17;;
82230;SDS011;71832;45.138;9.816;2023-12-28T14:39:02;49.97;;;25.95;;
82230;SDS011;71832;45.138;9.816;2023-12-28T14:41:31;42.53;;;25.52;;